Time;durP1;ratioP1;P1;durP2;ratioP2;P2;SDS_P1;SDS_P2;PMS_P1;PMS_P2;Temp;Humidity;BMP_temperature;BMP_pressure;BME280_temperature;BME280_humidity;BME280_pressure;Samples;Min_cycle;Max_cycle;Signal;HPM_P1;HPM_P2
2023/06/08 06:46:08;;;;;;;7.38;3.50;;;;;;;19.99;54.84;93963.22;5079989;28;1385057;-84
2023/06/08 06:48:34;;;;;;;10.07;3.97;;;;;;;20.08;54.94;93971.03;5124340;28;20101;-84
2023/06/08 06:50:59;;;;;;;21.63;5.38;;;;;;;20.13;54.69;93970.72;5124232;28;20019;-84
2023/06/08 06:53:25;;;;;;;12.32;3.78;;;;;;;20.26;55.19;93970.44;5124189;28;20064;-84
2023/06/08 06:55:51;;;;;;;19.25;4.25;;;;;;;20.40;54.99;93970.59;5124096;28;20047;-84
2023/06/08 06:58:16;;;;;;;9.90;3.50;;;;;;;20.51;54.05;93968.75;5124140;28;20209;-84
2023/06/08 07:00:43;;;;;;;12.70;3.85;;;;;;;20.57;52.49;93966.47;5124453;28;20107;-84
2023/06/08 07:03:09;;;;;;;18.23;4.47;;;;;;;20.66;52.35;93960.78;5123928;28;20047;-85
2023/06/08 07:05:34;;;;;;;10.65;3.90;;;;;;;20.78;52.59;93955.06;5124425;28;20011;-84
2023/06/08 07:08:01;;;;;;;10.98;4.05;;;;;;;20.87;52.19;93954.75;5123814;28;20233;-84
2023/06/08 07:10:26;;;;;;;11.73;4.15;;;;;;;20.99;51.96;93952.53;5123862;28;20325;-83
2023/06/08 07:12:52;;;;;;;11.85;3.78;;;;;;;21.08;51.59;93946.00;5123876;28;20020;-83
2023/06/08 07:15:18;;;;;;;12.07;3.53;;;;;;;21.14;50.47;93941.78;5123493;28;20066;-82
2023/06/08 07:17:44;;;;;;;13.63;3.10;;;;;;;21.24;49.80;93936.41;5123948;28;20048;-86
2023/06/08 07:20:10;;;;;;;11.73;3.65;;;;;;;21.36;50.78;93948.88;5123831;28;20027;-84
2023/06/08 07:22:38;;;;;;;7.80;3.15;;;;;;;21.50;49.87;93952.84;5105183;28;20043;-84
2023/06/08 07:25:05;;;;;;;7.07;3.03;;;;;;;21.64;49.40;93948.25;5105449;28;20321;-84
2023/06/08 07:27:30;;;;;;;10.18;3.55;;;;;;;21.69;49.08;93952.53;5123799;28;20385;-84
2023/06/08 07:29:56;;;;;;;7.72;3.17;;;;;;;21.57;48.81;93950.16;5105238;28;20040;-84
2023/06/08 07:32:24;;;;;;;10.65;3.92;;;;;;;21.65;48.76;93943.59;5123531;28;20024;-84
2023/06/08 07:34:50;;;;;;;7.85;3.83;;;;;;;21.71;48.55;93949.44;5123684;28;20023;-85
2023/06/08 07:37:15;;;;;;;9.13;3.38;;;;;;;21.71;48.84;93946.72;5123557;28;20294;-84
2023/06/08 07:39:41;;;;;;;6.40;3.53;;;;;;;21.74;49.04;93937.84;5105543;28;20023;-84
2023/06/08 07:42:06;;;;;;;12.23;4.25;;;;;;;21.77;50.06;93942.50;5123316;28;20046;-84
2023/06/08 07:44:32;;;;;;;9.85;3.92;;;;;;;21.88;50.73;93945.22;5105111;28;20318;-84
2023/06/08 07:46:58;;;;;;;13.35;3.75;;;;;;;21.88;48.80;93935.19;5123303;28;20015;-83
2023/06/08 07:49:24;;;;;;;14.38;4.13;;;;;;;21.92;49.74;93941.41;5123222;28;20034;-84
2023/06/08 07:51:50;;;;;;;9.15;4.10;;;;;;;21.99;48.95;93937.91;5103131;28;20073;-83
2023/06/08 07:54:19;;;;;;;15.02;4.07;;;;;;;22.04;49.27;93937.53;5102981;28;20035;-83
2023/06/08 07:56:46;;;;;;;12.05;4.28;;;;;;;22.08;49.95;93935.59;5102734;28;20333;-83
2023/06/08 07:59:15;;;;;;;20.80;4.80;;;;;;;22.21;50.29;93931.38;5102990;28;20024;-83
2023/06/08 08:01:42;;;;;;;7.45;3.92;;;;;;;22.29;49.88;93932.19;5085085;28;20024;-83
2023/06/08 08:04:07;;;;;;;12.57;4.97;;;;;;;22.37;49.23;93933.75;5102883;28;20077;-85
2023/06/08 08:06:40;;;;;;;10.70;4.18;;;;;;;22.40;50.15;93934.91;5102703;28;20410;-85
2023/06/08 08:09:08;;;;;;;27.60;5.07;;;;;;;22.42;51.21;93935.31;5102539;28;20020;-86
2023/06/08 08:11:39;;;;;;;6.32;3.78;;;;;;;22.52;49.99;93941.91;5102441;28;20020;-85
2023/06/08 08:14:10;;;;;;;14.98;3.95;;;;;;;22.59;48.94;93931.84;5086115;28;20103;-91
2023/06/08 08:16:46;;;;;;;12.98;3.95;;;;;;;22.80;48.97;93933.00;5110996;28;20046;-91
2023/06/08 08:19:11;;;;;;;23.08;3.65;;;;;;;22.94;48.09;93933.00;5085889;28;20416;-89
2023/06/08 08:21:42;;;;;;;8.90;2.88;;;;;;;23.10;48.23;93932.63;5103033;28;20043;-88
2023/06/08 08:24:07;;;;;;;17.67;3.80;;;;;;;23.24;47.68;93931.78;5102514;28;20027;-86
2023/06/08 08:26:34;;;;;;;9.88;3.78;;;;;;;23.33;47.42;93929.44;5102639;28;20186;-86
2023/06/08 08:29:09;;;;;;;14.52;3.72;;;;;;;23.34;46.70;93939.13;5102688;28;20027;-88
2023/06/08 08:31:35;;;;;;;10.80;3.85;;;;;;;23.33;47.42;93936.84;5084635;28;20028;-87
2023/06/08 08:34:01;;;;;;;20.45;3.80;;;;;;;23.44;47.82;93926.69;5102763;28;20130;-87
2023/06/08 08:36:29;;;;;;;20.27;3.55;;;;;;;23.54;46.96;93925.09;5105382;28;20024;-87
2023/06/08 08:38:54;;;;;;;11.35;3.25;;;;;;;23.53;46.62;93927.06;5106271;28;20027;-87
2023/06/08 08:41:21;;;;;;;6.60;3.83;;;;;;;23.61;46.12;93925.06;5106343;28;20020;-87
2023/06/08 08:44:01;;;;;;;9.55;3.85;;;;;;;23.60;45.83;93924.28;5106218;28;20027;-89
2023/06/08 08:46:33;;;;;;;8.75;3.92;;;;;;;23.55;45.84;93918.47;5106085;28;20044;-87
2023/06/08 08:49:04;;;;;;;8.98;2.85;;;;;;;23.35;45.99;93915.47;5107395;28;20155;-88
2023/06/08 08:51:32;;;;;;;13.10;3.80;;;;;;;23.38;46.52;93920.09;5106570;28;20030;-87
2023/06/08 08:54:02;;;;;;;9.40;3.22;;;;;;;23.39;46.36;93919.72;5088338;28;20065;-86
2023/06/08 08:56:29;;;;;;;8.82;3.40;;;;;;;23.53;46.26;93928.97;5105874;28;20020;-85
2023/06/08 08:58:55;;;;;;;12.75;3.50;;;;;;;23.56;46.46;93925.50;5105232;28;20020;-84
2023/06/08 09:01:25;;;;;;;9.23;2.92;;;;;;;23.67;46.12;93928.16;5086663;28;20020;-84
2023/06/08 09:03:52;;;;;;;15.68;3.38;;;;;;;23.73;45.46;93921.94;5103655;28;20057;-84
2023/06/08 09:06:17;;;;;;;10.48;4.40;;;;;;;23.79;44.26;93914.94;5104119;28;20053;-84
2023/06/08 09:08:47;;;;;;;8.40;3.58;;;;;;;23.93;45.17;93913.31;5085431;28;20312;-85
2023/06/08 09:11:13;;;;;;;6.22;2.88;;;;;;;24.03;44.55;93918.69;5085507;28;20249;-84
2023/06/08 09:13:39;;;;;;;11.07;3.03;;;;;;;24.12;44.70;93907.38;5085875;28;20016;-84
2023/06/08 09:16:19;;;;;;;7.38;3.40;;;;;;;24.11;43.67;93919.44;5103577;28;20023;-84
2023/06/08 09:18:46;;;;;;;8.43;3.65;;;;;;;24.09;45.07;93915.56;5103796;28;20035;-85
2023/06/08 09:21:29;;;;;;;6.85;3.28;;;;;;;24.08;44.68;93903.91;5104009;28;20199;-84
2023/06/08 09:24:04;;;;;;;17.02;3.28;;;;;;;24.03;44.19;93907.78;5103753;28;20016;-84
2023/06/08 09:26:34;;;;;;;9.57;3.20;;;;;;;24.02;44.05;93905.50;5086487;28;20024;-85
2023/06/08 09:29:01;;;;;;;14.55;3.28;;;;;;;24.07;44.21;93907.00;5104909;28;20091;-85
2023/06/08 09:31:30;;;;;;;11.57;2.63;;;;;;;24.13;43.81;93908.91;5105436;28;20395;-84
2023/06/08 09:34:07;;;;;;;12.90;3.95;;;;;;;24.10;43.96;93909.72;5104939;28;20027;-84
2023/06/08 09:36:36;;;;;;;9.75;2.90;;;;;;;24.10;44.08;93906.19;5104994;28;20019;-84
2023/06/08 09:39:03;;;;;;;9.63;3.70;;;;;;;24.19;43.33;93901.09;5104966;28;20026;-84
2023/06/08 09:41:29;;;;;;;9.23;3.78;;;;;;;24.27;44.82;93901.84;5105125;28;20023;-84
2023/06/08 09:43:55;;;;;;;9.68;3.58;;;;;;;24.34;44.33;93896.31;5105103;28;20033;-85
2023/06/08 09:46:41;;;;;;;11.93;4.88;;;;;;;24.33;42.98;93892.84;5104516;28;20207;-84
2023/06/08 09:49:07;;;;;;;7.47;2.92;;;;;;;24.35;43.60;93895.94;5104826;28;20028;-84
2023/06/08 09:51:34;;;;;;;7.25;3.15;;;;;;;24.39;43.62;93895.91;5104791;28;20296;-85
2023/06/08 09:54:01;;;;;;;10.20;3.10;;;;;;;24.48;43.60;93893.50;5086462;28;20039;-86
2023/06/08 09:56:27;;;;;;;14.13;3.83;;;;;;;24.57;44.36;93891.13;5104608;28;20020;-83
2023/06/08 09:58:58;;;;;;;11.00;4.03;;;;;;;24.69;43.79;93884.41;5104572;28;20016;-83
2023/06/08 10:01:35;;;;;;;13.27;5.75;;;;;;;24.78;43.86;93889.41;5104588;28;20015;-83
2023/06/08 10:04:11;;;;;;;10.77;3.38;;;;;;;24.76;43.67;93880.84;5104123;28;20217;-83
2023/06/08 10:06:37;;;;;;;4.82;3.03;;;;;;;24.68;43.92;93879.38;5104550;28;20046;-84
2023/06/08 10:09:07;;;;;;;6.00;3.03;;;;;;;24.83;44.13;93869.88;5104337;28;20239;-85
2023/06/08 10:11:34;;;;;;;11.65;3.15;;;;;;;24.91;43.27;93879.53;5104578;28;20020;-85
2023/06/08 10:13:59;;;;;;;7.72;2.97;;;;;;;25.05;43.08;93869.66;5104197;28;20020;-85
2023/06/08 10:16:25;;;;;;;7.65;3.13;;;;;;;25.19;43.65;93864.84;5104413;28;20020;-85
2023/06/08 10:18:52;;;;;;;9.40;2.90;;;;;;;25.29;42.59;93856.97;5104095;28;20020;-84
2023/06/08 10:21:18;;;;;;;9.00;2.92;;;;;;;25.39;42.08;93859.56;5086083;28;20187;-85
2023/06/08 10:23:44;;;;;;;8.25;3.25;;;;;;;25.47;42.50;93856.78;5086202;28;20020;-85
2023/06/08 10:26:11;;;;;;;6.20;2.75;;;;;;;25.54;42.74;93853.94;5104030;28;20099;-84
2023/06/08 10:29:06;;;;;;;11.05;3.10;;;;;;;25.61;42.01;93851.91;5104147;28;20024;-85
2023/06/08 10:31:38;;;;;;;11.63;3.03;;;;;;;25.68;41.75;93845.56;5103835;28;20360;-85
2023/06/08 10:34:12;;;;;;;9.65;3.45;;;;;;;25.75;41.51;93850.94;5103955;28;20321;-84
2023/06/08 10:36:40;;;;;;;7.65;3.08;;;;;;;25.77;41.27;93848.59;5103748;28;20326;-84
2023/06/08 10:39:12;;;;;;;7.90;3.20;;;;;;;25.79;39.93;93840.75;5104013;28;20508;-84
2023/06/08 10:41:38;;;;;;;6.95;3.20;;;;;;;25.68;38.99;93840.13;5103674;28;20027;-84
2023/06/08 10:44:04;;;;;;;8.88;3.38;;;;;;;25.62;40.77;93841.75;5104531;28;20020;-84
2023/06/08 10:46:42;;;;;;;8.00;3.00;;;;;;;25.64;40.52;93839.38;5085448;28;20070;-84
2023/06/08 10:49:08;;;;;;;7.22;2.85;;;;;;;25.64;38.70;93839.38;5103743;28;20042;-85
2023/06/08 10:51:46;;;;;;;5.97;2.50;;;;;;;25.70;39.82;93829.56;5103678;28;20032;-85
2023/06/08 10:54:22;;;;;;;7.65;2.67;;;;;;;25.78;38.89;93827.50;5103674;28;20050;-85
2023/06/08 10:56:52;;;;;;;13.98;2.60;;;;;;;25.87;38.11;93829.72;5103677;28;20199;-85
2023/06/08 10:59:38;;;;;;;5.30;2.60;;;;;;;26.04;39.54;93817.81;5103087;28;20031;-85
2023/06/08 11:02:06;;;;;;;5.15;2.45;;;;;;;26.12;38.13;93805.59;5102949;28;20042;-85
2023/06/08 11:04:34;;;;;;;8.20;2.95;;;;;;;26.08;38.48;93807.59;5085366;28;20044;-84
2023/06/08 11:07:00;;;;;;;10.95;2.40;;;;;;;26.16;38.38;93811.00;5103348;28;20020;-85
2023/06/08 11:09:28;;;;;;;10.32;2.85;;;;;;;26.18;37.80;93808.63;5103383;28;20108;-85
2023/06/08 11:11:54;;;;;;;15.45;3.22;;;;;;;26.25;38.07;93805.00;5103221;28;20355;-85
2023/06/08 11:14:21;;;;;;;6.35;2.58;;;;;;;26.36;38.00;93802.91;5085168;28;20031;-85
2023/06/08 11:16:53;;;;;;;4.95;2.78;;;;;;;26.51;38.21;93800.69;5103339;28;20024;-85
2023/06/08 11:19:20;;;;;;;6.93;2.53;;;;;;;26.64;38.04;93796.19;5085021;28;20024;-84
2023/06/08 11:21:50;;;;;;;6.00;2.63;;;;;;;26.74;37.25;93789.75;5103397;28;20323;-85
2023/06/08 11:24:18;;;;;;;7.07;2.22;;;;;;;26.80;36.19;93784.56;5103342;28;20028;-85
2023/06/08 11:26:44;;;;;;;8.38;3.30;;;;;;;26.81;37.81;93789.63;5103111;28;20089;-85
2023/06/08 11:29:09;;;;;;;14.20;2.75;;;;;;;26.89;37.88;93781.28;5085156;28;20028;-85
2023/06/08 11:31:40;;;;;;;3.78;2.08;;;;;;;27.01;36.74;93775.97;5103075;28;20024;-85
2023/06/08 11:34:11;;;;;;;4.18;2.70;;;;;;;27.22;35.99;93784.94;5085025;28;20276;-85
2023/06/08 11:36:38;;;;;;;4.93;2.17;;;;;;;27.30;35.73;93783.63;5103179;28;20032;-85
2023/06/08 11:39:05;;;;;;;8.10;2.50;;;;;;;27.39;35.48;93775.63;5103111;28;20045;-85
2023/06/08 11:41:31;;;;;;;11.77;2.70;;;;;;;27.51;34.94;93776.19;5102827;28;20385;-85
2023/06/08 11:43:57;;;;;;;8.98;2.35;;;;;;;27.59;34.28;93769.34;5102927;28;20020;-85
2023/06/08 11:46:23;;;;;;;6.15;1.90;;;;;;;27.69;35.16;93765.59;5102873;28;20028;-85
2023/06/08 11:48:50;;;;;;;8.05;2.35;;;;;;;27.89;33.94;93765.59;5102949;28;20328;-85
2023/06/08 11:51:19;;;;;;;9.88;2.13;;;;;;;28.05;32.57;93764.81;5102861;28;20016;-85
2023/06/08 11:53:47;;;;;;;13.65;1.90;;;;;;;28.19;32.78;93767.22;5103136;28;20082;-86
2023/06/08 11:56:13;;;;;;;4.10;1.98;;;;;;;28.49;32.23;93765.31;5102985;28;20087;-85
2023/06/08 11:58:40;;;;;;;4.10;1.98;;;;;;;28.72;32.08;93767.09;5102757;28;20027;-86
2023/06/08 12:01:09;;;;;;;5.80;2.33;;;;;;;28.98;32.05;93761.72;5102832;28;20077;-86
2023/06/08 12:03:55;;;;;;;10.45;2.33;;;;;;;29.34;31.15;93764.25;5084824;28;20048;-86
2023/06/08 12:06:24;;;;;;;12.25;2.20;;;;;;;29.64;29.83;93753.97;5102177;28;20101;-85
2023/06/08 12:08:50;;;;;;;6.93;2.35;;;;;;;29.80;29.68;93759.41;5103260;28;20026;-86
2023/06/08 12:11:15;;;;;;;3.85;1.80;;;;;;;29.72;29.43;93746.34;5106812;28;20039;-86
2023/06/08 12:13:43;;;;;;;7.93;2.60;;;;;;;29.66;29.96;93743.31;5106500;28;20096;-85
2023/06/08 12:16:10;;;;;;;6.18;2.17;;;;;;;29.70;29.67;93735.75;5106921;28;20043;-85
2023/06/08 12:18:40;;;;;;;8.20;1.92;;;;;;;29.93;29.34;93736.66;5106738;28;20024;-86
2023/06/08 12:21:08;;;;;;;5.88;1.90;;;;;;;30.02;29.20;93730.47;5088574;28;20047;-86
2023/06/08 12:23:34;;;;;;;8.70;2.30;;;;;;;30.17;28.70;93726.06;5088548;28;20273;-86
2023/06/08 12:26:00;;;;;;;6.18;1.80;;;;;;;30.41;27.94;93729.25;5088331;28;20016;-86
2023/06/08 12:28:25;;;;;;;10.95;2.20;;;;;;;30.62;27.58;93713.22;5106609;28;20024;-86
2023/06/08 12:30:51;;;;;;;5.18;1.77;;;;;;;30.76;28.18;93716.22;5106226;28;20027;-86
2023/06/08 12:33:18;;;;;;;4.45;2.08;;;;;;;30.98;28.25;93719.03;5106592;28;20025;-86
2023/06/08 12:35:50;;;;;;;4.05;1.80;;;;;;;31.27;26.55;93704.22;5106507;28;20279;-85
2023/06/08 12:38:16;;;;;;;6.82;1.83;;;;;;;31.44;27.54;93710.28;5106394;28;20051;-86
2023/06/08 12:40:47;;;;;;;7.47;1.80;;;;;;;31.67;27.29;93698.03;5106228;28;20056;-86
2023/06/08 12:43:19;;;;;;;5.47;2.30;;;;;;;32.08;27.56;93704.28;5106375;28;20028;-86
2023/06/08 12:45:48;;;;;;;6.60;2.28;;;;;;;32.49;26.50;93693.94;5106109;28;20260;-86
2023/06/08 12:48:14;;;;;;;13.10;2.38;;;;;;;32.51;27.22;93707.28;5106162;28;20031;-86
2023/06/08 12:50:39;;;;;;;11.27;2.15;;;;;;;32.44;27.14;93710.31;5105898;28;20085;-86
2023/06/08 12:53:06;;;;;;;9.13;2.22;;;;;;;32.43;26.73;93714.31;5106012;28;20016;-86
2023/06/08 12:55:31;;;;;;;13.50;2.58;;;;;;;32.56;26.80;93707.44;5105947;28;20091;-85
2023/06/08 12:57:56;;;;;;;10.02;2.88;;;;;;;33.10;27.20;93709.91;5106048;28;20024;-86
2023/06/08 13:00:22;;;;;;;5.28;2.20;;;;;;;33.31;28.12;93702.66;5105825;28;20020;-86
2023/06/08 13:02:49;;;;;;;9.48;2.78;;;;;;;33.59;27.47;93700.59;5105762;28;20020;-86
2023/06/08 13:05:14;;;;;;;13.50;2.90;;;;;;;33.99;26.82;93691.22;5105880;28;20043;-86
2023/06/08 13:07:40;;;;;;;10.45;2.47;;;;;;;34.48;25.70;93692.78;5105686;28;20322;-86
2023/06/08 13:10:06;;;;;;;9.65;2.22;;;;;;;34.86;25.02;93696.06;5105698;28;20032;-86
2023/06/08 13:12:31;;;;;;;4.32;2.42;;;;;;;34.78;24.77;93695.66;5105697;28;20051;-86
2023/06/08 13:14:57;;;;;;;7.72;2.40;;;;;;;34.59;25.07;93691.50;5105649;28;20019;-86
2023/06/08 13:17:28;;;;;;;5.70;2.53;;;;;;;33.98;26.07;93689.69;5105768;28;20087;-86
2023/06/08 13:19:54;;;;;;;8.10;2.43;;;;;;;33.59;26.67;93692.28;5087585;28;20069;-86
2023/06/08 13:22:23;;;;;;;11.13;2.25;;;;;;;33.15;26.65;93693.47;5105183;28;20243;-86
2023/06/08 13:24:49;;;;;;;8.80;2.75;;;;;;;32.74;27.78;93698.41;5087335;28;20031;-86
2023/06/08 13:27:15;;;;;;;9.15;3.45;;;;;;;32.30;28.44;93695.91;5105301;28;20239;-85
2023/06/08 13:29:40;;;;;;;11.82;2.53;;;;;;;31.86;29.34;93687.06;5105478;28;20034;-85
2023/06/08 13:32:07;;;;;;;14.90;2.85;;;;;;;31.58;30.11;93690.47;5105344;28;20047;-86
2023/06/08 13:34:35;;;;;;;5.07;2.55;;;;;;;31.36;30.01;93678.72;5087200;28;20023;-86
2023/06/08 13:37:01;;;;;;;9.27;2.60;;;;;;;31.18;30.55;93679.38;5105148;28;20330;-86
2023/06/08 13:39:27;;;;;;;10.35;2.60;;;;;;;31.02;30.80;93680.38;5105198;28;20019;-86
2023/06/08 13:41:53;;;;;;;5.05;2.30;;;;;;;30.65;30.58;93679.31;5104958;28;20020;-86
2023/06/08 13:44:18;;;;;;;12.82;3.03;;;;;;;30.34;31.24;93679.97;5105062;28;20062;-85
2023/06/08 13:46:44;;;;;;;8.52;2.72;;;;;;;30.18;31.71;93680.88;5086807;28;20070;-85
2023/06/08 13:49:09;;;;;;;13.77;3.35;;;;;;;29.82;33.05;93679.31;5086930;28;20172;-86
2023/06/08 13:51:36;;;;;;;11.88;2.30;;;;;;;29.57;33.52;93674.56;5086752;28;20028;-86
2023/06/08 13:54:02;;;;;;;7.05;2.40;;;;;;;29.39;34.50;93678.63;5105004;28;20190;-85
2023/06/08 13:56:28;;;;;;;5.13;2.67;;;;;;;29.31;34.83;93673.78;5104623;28;20318;-85
2023/06/08 13:59:02;;;;;;;10.52;3.22;;;;;;;29.09;35.73;93673.63;5104645;28;20030;-86
2023/06/08 14:01:28;;;;;;;6.97;3.00;;;;;;;28.88;35.78;93675.00;5104742;28;20031;-85
2023/06/08 14:03:56;;;;;;;18.27;2.65;;;;;;;28.65;36.15;93676.03;5104652;28;20119;-85
2023/06/08 14:06:21;;;;;;;18.45;3.28;;;;;;;28.51;36.50;93675.22;5104465;28;20050;-85
2023/06/08 14:08:47;;;;;;;8.70;2.20;;;;;;;28.45;36.62;93678.88;5086489;28;20020;-85
2023/06/08 14:11:13;;;;;;;6.68;2.80;;;;;;;28.49;36.80;93663.88;5086482;28;20028;-85
2023/06/08 14:13:38;;;;;;;16.30;2.67;;;;;;;29.06;36.03;93655.28;5104492;28;20024;-86
2023/06/08 14:16:04;;;;;;;11.75;2.85;;;;;;;30.56;33.86;93647.03;5104407;28;20128;-86
2023/06/08 14:18:30;;;;;;;9.95;2.55;;;;;;;32.12;31.04;93651.75;5104187;28;20035;-86
2023/06/08 14:20:56;;;;;;;6.30;2.45;;;;;;;32.82;29.74;93653.94;5104498;28;20305;-86
2023/06/08 14:23:21;;;;;;;4.35;2.45;;;;;;;32.77;29.47;93652.56;5104201;28;20046;-86
2023/06/08 14:25:47;;;;;;;4.40;2.42;;;;;;;32.63;29.98;93653.97;5104158;28;20073;-86
2023/06/08 14:28:12;;;;;;;8.45;2.40;;;;;;;32.44;30.27;93650.41;5104382;28;20120;-87
2023/06/08 14:30:40;;;;;;;12.52;2.67;;;;;;;32.34;30.70;93655.16;5104232;28;20024;-86
2023/06/08 14:33:10;;;;;;;12.02;2.38;;;;;;;32.11;30.72;93653.00;5103051;28;20028;-86
2023/06/08 14:35:37;;;;;;;12.33;2.90;;;;;;;31.85;31.54;93646.94;5104122;28;20081;-86
2023/06/08 14:38:03;;;;;;;6.40;2.50;;;;;;;31.45;32.06;93631.19;5104208;28;20016;-86
2023/06/08 14:40:29;;;;;;;17.00;3.05;;;;;;;31.12;32.54;93643.44;5104087;28;20020;-86
2023/06/08 14:42:54;;;;;;;13.65;2.80;;;;;;;30.71;34.00;93648.03;5103910;28;20353;-86
2023/06/08 14:45:19;;;;;;;15.90;3.95;;;;;;;30.23;38.38;93649.31;5104064;28;20032;-86
2023/06/08 14:47:45;;;;;;;16.08;4.70;;;;;;;29.78;41.96;93659.44;5085662;28;20199;-86
2023/06/08 14:50:14;;;;;;;15.30;3.88;;;;;;;29.38;43.46;93657.88;5103797;28;20066;-86
2023/06/08 14:52:39;;;;;;;14.82;4.07;;;;;;;28.96;45.33;93659.88;5103878;28;20046;-86
2023/06/08 14:55:05;;;;;;;8.18;3.80;;;;;;;28.53;47.05;93659.09;5103550;28;20016;-86
2023/06/08 14:57:30;;;;;;;8.57;3.45;;;;;;;28.15;48.78;93676.13;5103944;28;20298;-85
2023/06/08 14:59:56;;;;;;;11.93;3.83;;;;;;;27.71;50.48;93663.88;5103538;28;20039;-85
2023/06/08 15:02:21;;;;;;;5.57;3.17;;;;;;;27.25;50.31;93660.25;5103616;28;20047;-85
2023/06/08 15:04:47;;;;;;;13.60;3.42;;;;;;;26.84;52.90;93659.50;5103589;28;20314;-86
2023/06/08 15:07:13;;;;;;;8.98;3.70;;;;;;;26.53;53.46;93650.72;5103459;28;20393;-86
2023/06/08 15:09:38;;;;;;;12.63;3.42;;;;;;;26.30;54.24;93654.31;5103364;28;20341;-85
2023/06/08 15:12:07;;;;;;;9.15;3.30;;;;;;;26.15;54.70;93649.06;5085441;28;20293;-85
2023/06/08 15:14:32;;;;;;;8.10;3.90;;;;;;;25.95;56.79;93653.72;5103328;28;20012;-85
2023/06/08 15:16:58;;;;;;;14.75;4.20;;;;;;;25.62;56.57;93656.19;5103297;28;20016;-85
2023/06/08 15:19:23;;;;;;;9.43;3.58;;;;;;;25.29;58.56;93663.31;5103360;28;20361;-85
2023/06/08 15:21:49;;;;;;;11.48;3.75;;;;;;;24.96;57.78;93666.47;5085270;28;20012;-85
2023/06/08 15:24:15;;;;;;;7.38;3.42;;;;;;;24.74;59.77;93676.84;5103169;28;20022;-85
2023/06/08 15:26:40;;;;;;;9.93;4.22;;;;;;;24.53;60.69;93671.66;5103154;28;20024;-85
2023/06/08 15:29:06;;;;;;;7.07;3.97;;;;;;;24.35;60.40;93677.28;5085300;28;20027;-85
2023/06/08 15:31:32;;;;;;;13.13;4.05;;;;;;;24.18;61.11;93678.97;5103210;28;20039;-85
2023/06/08 15:33:57;;;;;;;8.38;4.28;;;;;;;23.97;62.25;93691.63;5102814;28;20044;-85
2023/06/08 15:36:23;;;;;;;6.00;3.90;;;;;;;23.82;62.05;93690.97;5103320;28;20020;-85
2023/06/08 15:38:48;;;;;;;16.67;4.75;;;;;;;23.75;63.82;93695.66;5103491;28;20024;-86
2023/06/08 15:41:14;;;;;;;24.00;4.97;;;;;;;23.62;65.96;93690.72;5085007;28;20260;-85
2023/06/08 15:43:41;;;;;;;13.38;4.18;;;;;;;23.52;67.21;93704.41;5102665;28;20317;-85
2023/06/08 15:46:06;;;;;;;18.67;5.75;;;;;;;23.38;65.93;93689.72;5102880;28;20123;-86
2023/06/08 15:48:32;;;;;;;13.50;4.68;;;;;;;23.28;65.85;93687.06;5102806;28;20023;-85
2023/06/08 15:50:57;;;;;;;15.57;4.57;;;;;;;23.20;67.36;93683.63;5102809;28;20074;-85
2023/06/08 15:53:23;;;;;;;9.38;4.97;;;;;;;23.15;69.54;93684.81;5103069;28;20028;-85
2023/06/08 15:55:51;;;;;;;8.60;5.53;;;;;;;23.10;69.89;93685.25;5103198;28;20050;-86
2023/06/08 15:58:18;;;;;;;10.73;4.60;;;;;;;22.97;69.16;93684.88;5102902;28;20024;-86
2023/06/08 16:00:44;;;;;;;11.20;4.68;;;;;;;22.88;67.83;93683.75;5102803;28;20024;-86
2023/06/08 16:03:10;;;;;;;9.45;4.07;;;;;;;22.79;68.39;93684.19;5085042;28;20012;-86
2023/06/08 16:05:35;;;;;;;8.98;4.43;;;;;;;22.74;67.19;93679.94;5084811;28;20026;-86
2023/06/08 16:08:01;;;;;;;9.95;3.85;;;;;;;22.71;68.13;93677.25;5084693;28;20046;-85
2023/06/08 16:10:26;;;;;;;11.60;3.95;;;;;;;22.60;68.36;93680.78;5084949;28;20020;-85
2023/06/08 16:12:51;;;;;;;10.30;3.83;;;;;;;22.54;68.01;93678.88;5103076;28;20012;-85
2023/06/08 16:15:17;;;;;;;10.45;4.10;;;;;;;22.54;68.60;93684.28;5084772;28;20162;-86
2023/06/08 16:17:43;;;;;;;10.00;5.15;;;;;;;22.51;68.87;93688.56;5084828;28;20434;-85
2023/06/08 16:20:08;;;;;;;13.07;5.57;;;;;;;22.48;69.34;93680.44;5102881;28;20012;-85
2023/06/08 16:22:34;;;;;;;8.05;4.43;;;;;;;22.45;69.30;93690.16;5102642;28;20035;-85
2023/06/08 16:25:00;;;;;;;7.75;4.72;;;;;;;22.48;71.24;93686.63;5102497;28;20292;-86
2023/06/08 16:27:26;;;;;;;13.15;5.07;;;;;;;22.43;72.13;93692.47;5102686;28;20317;-85
2023/06/08 16:29:52;;;;;;;10.43;4.68;;;;;;;22.38;71.53;93695.59;5084830;28;20310;-85
2023/06/08 16:32:18;;;;;;;11.07;4.35;;;;;;;22.33;71.37;93699.47;5102731;28;20016;-85
2023/06/08 16:34:43;;;;;;;11.57;4.60;;;;;;;22.29;71.25;93709.56;5102485;28;20111;-85
2023/06/08 16:37:09;;;;;;;10.07;4.45;;;;;;;22.29;71.88;93708.78;5102509;28;20065;-85
2023/06/08 16:39:34;;;;;;;11.45;4.78;;;;;;;22.27;71.49;93706.47;5102423;28;20016;-85
2023/06/08 16:42:00;;;;;;;12.45;4.45;;;;;;;22.29;71.11;93715.00;5084404;28;20046;-85
2023/06/08 16:44:25;;;;;;;8.27;4.20;;;;;;;22.28;71.28;93704.53;5084197;28;20119;-85
2023/06/08 16:46:52;;;;;;;12.13;5.20;;;;;;;22.21;71.86;93716.16;5102860;28;20371;-86
2023/06/08 16:49:18;;;;;;;8.93;4.63;;;;;;;22.14;71.90;93714.22;5102731;28;20054;-85
2023/06/08 16:51:43;;;;;;;9.90;4.60;;;;;;;22.09;72.57;93717.31;5102101;28;20028;-85
2023/06/08 16:54:09;;;;;;;11.18;4.72;;;;;;;22.06;71.95;93711.91;5102519;28;20040;-85
2023/06/08 16:56:34;;;;;;;10.50;5.00;;;;;;;22.01;72.22;93721.22;5085976;28;20075;-85
2023/06/08 16:59:00;;;;;;;8.30;4.97;;;;;;;21.96;72.79;93719.69;5087738;28;20031;-85
2023/06/08 17:01:25;;;;;;;11.35;4.70;;;;;;;21.94;72.10;93723.91;5105946;28;20318;-85
2023/06/08 17:03:51;;;;;;;6.57;4.60;;;;;;;21.89;71.54;93718.91;5106221;28;20020;-85
2023/06/08 17:06:17;;;;;;;8.93;4.43;;;;;;;21.81;70.33;93718.88;5105898;28;20411;-85
2023/06/08 17:08:42;;;;;;;8.90;3.72;;;;;;;21.74;69.59;93724.31;5087730;28;20352;-85
2023/06/08 17:11:08;;;;;;;7.03;4.20;;;;;;;21.70;71.32;93726.25;5105869;28;20016;-85
2023/06/08 17:13:37;;;;;;;9.18;4.53;;;;;;;21.64;72.96;93730.53;5105452;28;20069;-84
2023/06/08 17:16:03;;;;;;;9.35;4.40;;;;;;;21.60;73.33;93733.22;5105628;28;20091;-85
2023/06/08 17:18:29;;;;;;;13.10;5.25;;;;;;;21.57;73.80;93733.97;5105617;28;20024;-84
2023/06/08 17:20:54;;;;;;;11.32;6.25;;;;;;;21.57;74.34;93735.91;5105628;28;20066;-84
2023/06/08 17:23:20;;;;;;;9.30;5.38;;;;;;;21.55;74.41;93738.25;5087468;28;20024;-84
2023/06/08 17:25:45;;;;;;;7.90;5.03;;;;;;;21.48;73.54;93739.03;5105252;28;20245;-84
2023/06/08 17:28:11;;;;;;;12.20;5.00;;;;;;;21.43;72.79;93744.81;5105445;28;20249;-85
2023/06/08 17:30:36;;;;;;;9.80;3.65;;;;;;;21.38;72.04;93750.59;5105342;28;20328;-84
2023/06/08 17:33:02;;;;;;;8.20;3.95;;;;;;;21.27;71.06;93753.28;5105262;28;20020;-84
2023/06/08 17:35:27;;;;;;;11.18;4.32;;;;;;;21.14;72.41;93754.78;5105331;28;20020;-84
2023/06/08 17:37:53;;;;;;;10.48;4.45;;;;;;;21.10;73.87;93754.00;5105177;28;20016;-84
2023/06/08 17:40:18;;;;;;;12.95;4.03;;;;;;;21.03;71.17;93757.47;5105390;28;20020;-84
2023/06/08 17:42:44;;;;;;;7.88;4.63;;;;;;;20.94;70.55;93760.50;5104797;28;20027;-84
2023/06/08 17:45:09;;;;;;;7.80;3.95;;;;;;;20.81;70.74;93754.66;5104859;28;20051;-84
2023/06/08 17:47:35;;;;;;;13.55;4.57;;;;;;;20.75;72.24;93758.88;5104713;28;20046;-85
2023/06/08 17:50:01;;;;;;;7.00;4.72;;;;;;;20.78;73.03;93768.19;5104959;28;20035;-85
2023/06/08 17:52:27;;;;;;;13.70;5.40;;;;;;;20.77;73.21;93763.94;5087121;28;20020;-86
2023/06/08 17:54:52;;;;;;;12.88;5.35;;;;;;;20.81;74.84;93762.78;5104988;28;20018;-85
2023/06/08 17:57:18;;;;;;;12.98;4.68;;;;;;;20.87;74.33;93767.84;5104832;28;20012;-82
2023/06/08 17:59:43;;;;;;;8.38;4.70;;;;;;;20.88;73.29;93770.16;5086404;28;20042;-83
2023/06/08 18:02:20;;;;;;;7.93;4.55;;;;;;;20.88;70.77;93769.38;5104735;28;20039;-82
2023/06/08 18:04:46;;;;;;;6.72;4.15;;;;;;;20.87;73.86;93768.63;5086746;28;20020;-82
2023/06/08 18:07:11;;;;;;;7.22;3.90;;;;;;;20.83;71.34;93776.72;5104333;28;20043;-83
2023/06/08 18:09:37;;;;;;;8.45;4.45;;;;;;;20.80;71.53;93780.22;5104515;28;20023;-82
2023/06/08 18:12:02;;;;;;;13.90;7.85;;;;;;;20.84;73.37;93782.91;5104777;28;20039;-82
2023/06/08 18:14:31;;;;;;;20.45;7.03;;;;;;;20.83;73.06;93786.78;5104093;28;20276;-82